Time;durP1;ratioP1;P1;durP2;ratioP2;P2;SDS_P1;SDS_P2;PMS_P1;PMS_P2;Temp;Humidity;BMP_temperature;BMP_pressure;BME280_temperature;BME280_humidity;BME280_pressure;Samples;Min_cycle;Max_cycle;Signal;HPM_P1;HPM_P2
2021/12/18 00:01:09;;;;;;;20.92;12.82;;;;;;;7.29;84.55;102087.56;5090550;28;20068;-81
2021/12/18 00:03:35;;;;;;;20.08;13.18;;;;;;;7.25;85.09;102085.03;5074520;28;20048;-80
2021/12/18 00:06:01;;;;;;;19.98;12.55;;;;;;;7.23;84.55;102083.38;5093272;28;20387;-81
2021/12/18 00:08:27;;;;;;;20.48;13.10;;;;;;;7.23;85.04;102080.69;5092901;28;20021;-82
2021/12/18 00:10:53;;;;;;;21.83;13.35;;;;;;;7.24;85.30;102083.31;5075777;28;20127;-81
2021/12/18 00:13:19;;;;;;;20.55;13.10;;;;;;;7.20;85.04;102079.03;5074125;28;20025;-81
2021/12/18 00:15:44;;;;;;;17.48;12.60;;;;;;;7.25;84.77;102087.69;5074303;28;20035;-80
2021/12/18 00:18:10;;;;;;;20.52;13.50;;;;;;;7.30;85.44;102084.84;5092439;28;20046;-81
2021/12/18 00:20:37;;;;;;;19.48;13.00;;;;;;;7.31;85.19;102083.91;5076038;28;20040;-80
2021/12/18 00:23:03;;;;;;;22.77;13.45;;;;;;;7.26;85.06;102073.47;5091893;28;20067;-82
2021/12/18 00:25:28;;;;;;;21.63;14.00;;;;;;;7.22;84.54;102085.16;5075738;28;20052;-80
2021/12/18 00:27:54;;;;;;;22.75;14.32;;;;;;;7.30;84.76;102076.00;5093839;28;20039;-81
2021/12/18 00:30:19;;;;;;;20.52;13.85;;;;;;;7.25;84.47;102071.72;5092760;28;20048;-81
2021/12/18 00:32:44;;;;;;;21.13;13.93;;;;;;;7.29;84.91;102077.78;5091816;28;20032;-81
2021/12/18 00:35:10;;;;;;;22.05;13.65;;;;;;;7.24;84.79;102075.31;5092604;28;20056;-82
2021/12/18 00:37:36;;;;;;;19.65;12.77;;;;;;;7.24;84.64;102074.44;5092163;28;20061;-81
2021/12/18 00:40:06;;;;;;;19.95;13.35;;;;;;;7.18;85.16;102075.56;5091567;28;20116;-81
2021/12/18 00:42:47;;;;;;;24.48;13.93;;;;;;;7.22;84.85;102073.66;5075162;28;20035;-81
2021/12/18 00:45:14;;;;;;;19.10;13.23;;;;;;;7.20;84.73;102071.06;5091253;28;20047;-80
2021/12/18 00:47:40;;;;;;;23.33;14.27;;;;;;;7.13;84.82;102076.69;5090930;28;20040;-80
2021/12/18 00:50:08;;;;;;;28.48;14.25;;;;;;;7.08;84.92;102076.00;5073429;28;20047;-81
2021/12/18 00:52:34;;;;;;;20.92;13.82;;;;;;;7.09;85.09;102064.41;5089647;28;20044;-81
2021/12/18 00:54:59;;;;;;;22.05;14.68;;;;;;;7.09;85.07;102065.28;5090622;28;20064;-82
2021/12/18 00:57:25;;;;;;;23.48;13.73;;;;;;;7.04;85.06;102067.28;5091313;28;20047;-82
2021/12/18 00:59:53;;;;;;;21.13;13.38;;;;;;;7.07;84.68;102067.16;5074625;28;20035;-81
2021/12/18 01:02:18;;;;;;;23.25;14.93;;;;;;;7.06;84.94;102064.56;5074377;28;20048;-81
2021/12/18 01:04:44;;;;;;;22.10;14.23;;;;;;;7.05;85.26;102062.81;5090650;28;20031;-81
2021/12/18 01:07:09;;;;;;;22.35;14.10;;;;;;;7.11;84.94;102068.78;5092433;28;20039;-82
2021/12/18 01:10:00;;;;;;;23.48;15.00;;;;;;;7.03;85.20;102067.34;5092413;28;20386;-81
2021/12/18 01:12:31;;;;;;;25.40;14.75;;;;;;;7.05;84.53;102078.78;5078170;28;20085;-81
2021/12/18 01:22:45;;;;;;;24.55;15.20;;;;;;;6.89;85.08;102078.53;5092015;28;20043;-81
2021/12/18 01:25:11;;;;;;;24.08;14.63;;;;;;;6.91;85.64;102074.91;5091593;28;20047;-80
2021/12/18 01:27:36;;;;;;;24.67;15.15;;;;;;;6.87;85.04;102072.41;5073785;28;20390;-81
2021/12/18 01:30:06;;;;;;;24.25;15.30;;;;;;;6.88;85.02;102077.69;5092564;28;20088;-81
2021/12/18 01:32:31;;;;;;;23.20;14.45;;;;;;;6.94;84.75;102077.44;5090003;28;20040;-81
2021/12/18 01:34:56;;;;;;;24.20;15.07;;;;;;;7.00;85.28;102075.44;5090794;28;20032;-83
2021/12/18 01:37:22;;;;;;;23.00;15.20;;;;;;;6.95;84.78;102072.97;5073287;28;20130;-80
2021/12/18 01:39:47;;;;;;;24.52;14.57;;;;;;;6.99;84.72;102074.56;5073852;28;20410;-80
2021/12/18 01:43:45;;;;;;;24.70;16.08;;;;;;;6.94;85.05;102073.91;5091130;28;20041;-81
2021/12/18 01:45:28;;;;;;;23.85;15.02;;;;;;;6.95;84.49;102065.00;5078248;28;20036;-80
2021/12/18 01:53:22;;;;;;;24.60;15.55;;;;;;;6.99;84.79;102077.25;5089886;28;20047;-81
2021/12/18 01:55:50;;;;;;;24.30;15.55;;;;;;;7.00;85.05;102080.75;5090456;28;20035;-82
2021/12/18 01:58:21;;;;;;;23.63;15.52;;;;;;;6.95;84.89;102078.28;5090145;28;20039;-81
2021/12/18 02:00:50;;;;;;;26.48;16.00;;;;;;;6.97;84.84;102075.56;5088792;28;20021;-82
2021/12/18 02:03:16;;;;;;;26.50;15.23;;;;;;;6.97;84.82;102078.22;5073899;28;20051;-81
2021/12/18 02:05:41;;;;;;;25.27;15.40;;;;;;;6.94;85.03;102073.91;5090026;28;20037;-80
2021/12/18 02:08:07;;;;;;;24.42;16.45;;;;;;;6.91;84.52;102079.34;5090503;28;20029;-81
2021/12/18 02:10:43;;;;;;;28.42;17.33;;;;;;;6.89;85.58;102070.56;5072756;28;20038;-80
2021/12/18 02:21:43;;;;;;;30.58;18.45;;;;;;;7.07;85.52;102064.47;5056493;28;20037;-80
2021/12/18 02:24:08;;;;;;;30.48;19.25;;;;;;;7.05;85.26;102066.34;5063214;28;20039;-80
2021/12/18 02:26:34;;;;;;;28.23;18.83;;;;;;;7.03;85.34;102062.88;5073525;28;20035;-80
2021/12/18 02:29:02;;;;;;;32.35;20.80;;;;;;;7.03;85.02;102057.56;5073241;28;20064;-81
2021/12/18 02:31:28;;;;;;;32.45;20.08;;;;;;;7.06;85.98;102057.44;5073621;28;20028;-81
2021/12/18 02:33:54;;;;;;;32.40;20.27;;;;;;;7.06;85.94;102056.56;5089972;28;20097;-81
2021/12/18 02:36:23;;;;;;;31.63;20.48;;;;;;;7.00;85.72;102044.38;5090497;28;20058;-81
2021/12/18 02:43:49;;;;;;;36.70;22.08;;;;;;;7.07;85.72;102048.53;5089895;28;20036;-81
2021/12/18 02:46:19;;;;;;;34.45;22.15;;;;;;;7.08;86.10;102050.25;5072437;28;20119;-80
2021/12/18 02:48:46;;;;;;;33.03;20.83;;;;;;;7.13;86.17;102047.44;5072489;28;20119;-81
2021/12/18 02:51:12;;;;;;;33.22;20.67;;;;;;;7.13;86.23;102045.63;5072838;28;20029;-81
2021/12/18 02:53:41;;;;;;;36.05;21.83;;;;;;;7.08;86.35;102042.28;5089212;28;20035;-81
2021/12/18 02:56:08;;;;;;;;;;;;;;;7.12;86.47;102048.38;5073177;28;20184;-81
2021/12/18 02:58:43;;;;;;;34.42;20.58;;;;;;;7.11;86.10;102043.97;5088836;28;19927;-82
2021/12/18 03:01:10;;;;;;;36.53;21.27;;;;;;;7.10;86.66;102045.78;5089756;28;20040;-81
2021/12/18 03:03:39;;;;;;;35.90;21.90;;;;;;;7.14;86.61;102049.16;5089968;28;20056;-81
2021/12/18 03:06:31;;;;;;;36.63;22.05;;;;;;;7.11;86.51;102044.84;5072711;28;20029;-80
2021/12/18 03:20:40;;;;;;;37.60;22.20;;;;;;;7.06;87.32;102032.63;5090293;28;20055;-81
2021/12/18 03:23:03;;;;;;;41.55;22.75;;;;;;;7.03;87.53;102041.59;5089164;28;20036;-80
2021/12/18 03:25:31;;;;;;;39.45;23.77;;;;;;;7.07;87.96;102037.88;5090336;28;20059;-80
2021/12/18 03:28:02;;;;;;;44.20;24.58;;;;;;;7.12;87.68;102032.41;5091856;28;20088;-80
2021/12/18 03:30:27;;;;;;;46.38;23.25;;;;;;;7.04;87.70;102035.34;5091723;28;20062;-81
2021/12/18 03:32:53;;;;;;;44.72;23.50;;;;;;;7.06;87.92;102040.59;5091912;28;20028;-80
2021/12/18 03:35:19;;;;;;;44.30;22.63;;;;;;;7.03;88.50;102035.41;5092190;28;20036;-81
2021/12/18 03:37:44;;;;;;;42.85;23.75;;;;;;;7.03;88.82;102030.09;5092879;28;20032;-81
2021/12/18 03:40:14;;;;;;;41.30;23.08;;;;;;;7.03;88.65;102030.97;5093353;28;20041;-81
2021/12/18 03:42:39;;;;;;;42.58;23.15;;;;;;;6.98;88.71;102032.94;5091222;28;20029;-82
2021/12/18 03:45:07;;;;;;;41.30;22.05;;;;;;;7.00;88.91;102030.22;5094561;28;20032;-82
2021/12/18 03:47:32;;;;;;;42.53;22.27;;;;;;;7.05;89.12;102038.88;5075621;28;20036;-80
2021/12/18 03:49:58;;;;;;;40.58;22.98;;;;;;;7.10;89.02;102031.59;5075680;28;20047;-80
2021/12/18 03:52:23;;;;;;;43.05;23.60;;;;;;;7.06;89.53;102032.63;5091834;28;20033;-83
2021/12/18 03:54:49;;;;;;;44.20;24.52;;;;;;;7.05;89.30;102033.56;5092140;28;20115;-81
2021/12/18 03:57:14;;;;;;;42.78;22.52;;;;;;;7.04;89.54;102030.03;5092361;28;20067;-82
2021/12/18 03:59:39;;;;;;;43.75;22.98;;;;;;;7.05;89.45;102033.56;5074655;28;20067;-80
2021/12/18 04:02:05;;;;;;;44.10;22.95;;;;;;;7.07;89.62;102029.91;5073181;28;20397;-80
2021/12/18 04:04:30;;;;;;;43.88;23.83;;;;;;;7.09;89.71;102037.81;5091177;28;20077;-81
2021/12/18 04:06:56;;;;;;;47.75;23.52;;;;;;;7.07;89.67;102027.25;5090475;28;20031;-81
2021/12/18 04:09:21;;;;;;;47.42;23.35;;;;;;;7.16;89.71;102034.00;5075360;28;20043;-81
2021/12/18 04:11:47;;;;;;;43.88;24.05;;;;;;;7.10;89.80;102042.25;5091256;28;20059;-81
2021/12/18 04:14:14;;;;;;;49.00;23.90;;;;;;;7.05;89.74;102041.53;5091914;28;20043;-80
2021/12/18 04:16:39;;;;;;;43.40;23.27;;;;;;;7.08;90.13;102049.38;5074595;28;20037;-81
2021/12/18 04:19:05;;;;;;;44.97;23.15;;;;;;;7.07;89.47;102048.53;5075169;28;20062;-80
2021/12/18 04:21:32;;;;;;;45.80;23.70;;;;;;;7.04;90.28;102046.00;5092005;28;20036;-81
2021/12/18 04:23:57;;;;;;;43.08;23.48;;;;;;;7.05;89.79;102038.88;5074594;28;20028;-82
2021/12/18 04:26:23;;;;;;;44.83;23.67;;;;;;;7.02;89.84;102042.53;5075115;28;20113;-81
2021/12/18 04:28:48;;;;;;;38.58;21.98;;;;;;;7.06;89.99;102043.28;5075164;28;20095;-80
2021/12/18 04:31:14;;;;;;;42.63;23.30;;;;;;;7.05;89.56;102047.72;5074057;28;20065;-82
2021/12/18 04:33:40;;;;;;;40.38;22.52;;;;;;;7.05;90.10;102041.53;5092928;28;20802;-81
2021/12/18 04:36:05;;;;;;;40.20;23.40;;;;;;;7.13;89.72;102045.63;5090782;28;20052;-80
2021/12/18 04:38:31;;;;;;;37.33;22.35;;;;;;;7.13;89.82;102042.13;5091729;28;20895;-80
2021/12/18 04:40:57;;;;;;;39.00;21.33;;;;;;;7.14;89.56;102047.38;5090564;28;20469;-81
2021/12/18 04:43:23;;;;;;;39.50;22.60;;;;;;;7.13;89.76;102053.63;5075821;28;20032;-80
2021/12/18 04:45:48;;;;;;;38.67;22.30;;;;;;;7.13;89.29;102056.28;5091088;28;20036;-82
2021/12/18 04:48:13;;;;;;;35.70;21.48;;;;;;;7.19;89.26;102042.72;5075282;28;20032;-81
2021/12/18 04:50:39;;;;;;;40.92;23.70;;;;;;;7.19;89.70;102049.84;5092403;28;20028;-80
2021/12/18 04:53:04;;;;;;;41.42;23.45;;;;;;;7.17;89.26;102049.03;5073804;28;20466;-81
2021/12/18 04:55:29;;;;;;;40.05;22.63;;;;;;;7.15;89.02;102043.78;5073581;28;20036;-81
2021/12/18 04:57:55;;;;;;;37.03;22.33;;;;;;;7.16;89.29;102040.19;5092244;28;20032;-81
2021/12/18 05:00:27;;;;;;;37.55;22.95;;;;;;;7.10;89.39;102045.78;5092293;28;20400;-80
2021/12/18 05:02:54;;;;;;;39.90;22.58;;;;;;;7.14;89.49;102044.72;5075783;28;20048;-82
2021/12/18 05:05:19;;;;;;;40.83;23.73;;;;;;;7.15;89.47;102041.13;5073642;28;20078;-81
2021/12/18 05:07:45;;;;;;;36.65;22.55;;;;;;;7.12;89.72;102041.25;5073735;28;20036;-81
2021/12/18 05:10:11;;;;;;;40.28;22.95;;;;;;;7.17;89.41;102044.56;5073935;28;20055;-80
2021/12/18 05:12:37;;;;;;;41.80;23.40;;;;;;;7.21;89.41;102040.00;5091483;28;20058;-83
2021/12/18 05:15:03;;;;;;;40.08;23.80;;;;;;;7.17;89.21;102052.56;5074140;28;20067;-81
2021/12/18 05:17:28;;;;;;;39.92;22.90;;;;;;;7.17;89.45;102049.03;5090156;28;20032;-81
2021/12/18 05:19:54;;;;;;;40.35;23.15;;;;;;;7.16;89.53;102044.66;5089569;28;20039;-81
2021/12/18 05:22:19;;;;;;;41.03;23.40;;;;;;;7.19;89.33;102037.41;5090637;28;20036;-80
2021/12/18 05:24:44;;;;;;;40.17;23.92;;;;;;;7.20;89.18;102033.81;5074590;28;20028;-80
2021/12/18 05:27:09;;;;;;;39.15;22.42;;;;;;;7.16;89.03;102044.66;5074660;28;20837;-81
2021/12/18 05:29:35;;;;;;;44.00;24.05;;;;;;;7.15;89.25;102046.44;5089701;28;20036;-82
2021/12/18 05:32:00;;;;;;;42.90;24.60;;;;;;;7.15;89.45;102058.88;5088766;28;20038;-80
2021/12/18 05:34:32;;;;;;;41.45;22.77;;;;;;;7.14;89.38;102051.81;5090355;28;20055;-81
2021/12/18 05:39:26;;;;;;;42.25;24.50;;;;;;;7.07;89.73;102059.16;5090048;28;20044;-82
2021/12/18 05:41:51;;;;;;;44.42;24.80;;;;;;;7.04;89.33;102059.28;5090430;28;20044;-80
2021/12/18 05:44:22;;;;;;;40.80;22.92;;;;;;;7.06;89.46;102061.88;5089410;28;20028;-80
2021/12/18 05:46:48;;;;;;;43.58;23.48;;;;;;;7.06;89.37;102062.75;5088710;28;20031;-81
2021/12/18 05:49:13;;;;;;;41.08;23.02;;;;;;;7.08;90.16;102065.34;5073046;28;20036;-81
2021/12/18 05:51:39;;;;;;;45.38;24.48;;;;;;;7.12;89.76;102069.66;5090181;28;20564;-80
2021/12/18 05:54:04;;;;;;;43.17;24.05;;;;;;;7.05;89.43;102066.34;5057748;28;20118;-81
2021/12/18 05:56:30;;;;;;;46.80;24.95;;;;;;;7.10;90.24;102077.69;5071670;28;20040;-81
2021/12/18 05:58:56;;;;;;;46.17;25.38;;;;;;;7.10;89.63;102071.50;5091532;28;20051;-81
2021/12/18 06:01:21;;;;;;;43.58;25.05;;;;;;;6.95;89.56;102070.31;5073366;28;20478;-81
2021/12/18 06:03:47;;;;;;;44.83;24.23;;;;;;;7.08;89.77;102068.00;5090846;28;20040;-81
2021/12/18 06:06:12;;;;;;;43.13;24.67;;;;;;;7.12;89.94;102073.16;5073619;28;20040;-81
2021/12/18 06:08:38;;;;;;;43.83;24.42;;;;;;;7.10;89.49;102071.50;5090425;28;20032;-81
2021/12/18 06:11:10;;;;;;;42.90;24.75;;;;;;;7.09;89.89;102065.28;5073372;28;20397;-81
2021/12/18 06:13:35;;;;;;;43.72;24.20;;;;;;;7.13;89.71;102066.06;5090617;28;20040;-81
2021/12/18 06:16:01;;;;;;;42.50;23.98;;;;;;;7.11;89.87;102062.59;5090925;28;20043;-82
2021/12/18 06:18:26;;;;;;;41.97;24.30;;;;;;;7.07;89.84;102071.59;5072816;28;20588;-81
2021/12/18 06:20:52;;;;;;;45.88;25.88;;;;;;;7.02;90.15;102065.59;5090319;28;20047;-81
2021/12/18 06:23:17;;;;;;;44.63;24.95;;;;;;;7.05;89.96;102068.13;5089519;28;20149;-80
2021/12/18 06:25:42;;;;;;;44.05;24.90;;;;;;;7.08;89.94;102065.34;5073081;28;20032;-82
2021/12/18 06:28:08;;;;;;;45.58;25.92;;;;;;;7.06;89.93;102059.22;5073700;28;20119;-80
2021/12/18 06:30:33;;;;;;;47.03;25.55;;;;;;;7.00;89.78;102062.16;5088810;28;20024;-81
2021/12/18 06:32:59;;;;;;;44.20;24.20;;;;;;;7.07;89.87;102059.16;5073091;28;20822;-82
2021/12/18 06:35:24;;;;;;;47.47;25.20;;;;;;;7.07;90.19;102060.97;5090119;28;20071;-80
2021/12/18 06:37:50;;;;;;;47.83;24.58;;;;;;;7.11;89.90;102065.25;5090665;28;20071;-81
2021/12/18 06:40:16;;;;;;;47.83;24.83;;;;;;;7.05;90.28;102061.03;5073343;28;20123;-81
2021/12/18 06:42:42;;;;;;;44.40;23.77;;;;;;;7.02;89.77;102058.50;5091047;28;20100;-80
2021/12/18 06:45:08;;;;;;;45.88;24.13;;;;;;;7.01;90.22;102064.75;5090128;28;20028;-80
2021/12/18 06:47:34;;;;;;;48.60;24.83;;;;;;;7.02;89.95;102066.47;5073098;28;20035;-80
2021/12/18 06:49:59;;;;;;;47.17;25.27;;;;;;;7.02;90.15;102060.28;5090328;28;20143;-81
2021/12/18 06:52:24;;;;;;;49.83;26.10;;;;;;;6.95;89.83;102052.56;5090351;28;20038;-79
2021/12/18 06:54:50;;;;;;;55.03;32.33;;;;;;;7.05;90.07;102057.50;5088580;28;20037;-82
2021/12/18 06:57:15;;;;;;;53.88;26.95;;;;;;;7.08;89.71;102058.22;5090269;28;20088;-81
2021/12/18 06:59:40;;;;;;;47.25;24.88;;;;;;;7.06;90.23;102053.91;5073155;28;20027;-81
2021/12/18 07:02:06;;;;;;;49.50;25.50;;;;;;;7.03;89.78;102057.56;5090893;28;20567;-81
2021/12/18 07:04:31;;;;;;;50.70;25.50;;;;;;;6.98;89.66;102053.38;5094016;28;20028;-80
2021/12/18 07:06:56;;;;;;;53.08;26.88;;;;;;;7.00;89.82;102052.38;5094733;28;20077;-80
2021/12/18 07:09:22;;;;;;;48.80;24.42;;;;;;;7.09;89.73;102054.66;5092105;28;20126;-81
2021/12/18 07:11:47;;;;;;;48.30;24.73;;;;;;;7.05;90.31;102060.16;5095271;28;20056;-80
2021/12/18 07:14:18;;;;;;;49.13;24.75;;;;;;;7.01;90.07;102053.25;5093308;28;20044;-81
2021/12/18 07:16:43;;;;;;;51.60;25.50;;;;;;;6.93;90.10;102059.75;5092552;28;20093;-81
2021/12/18 07:19:08;;;;;;;52.30;24.65;;;;;;;6.92;90.53;102062.47;5076235;28;20082;-81
2021/12/18 07:21:34;;;;;;;54.15;25.48;;;;;;;6.85;90.58;102063.63;5093071;28;20063;-81
2021/12/18 07:23:59;;;;;;;49.05;23.83;;;;;;;6.87;90.60;102075.09;5093493;28;20036;-80
2021/12/18 07:26:24;;;;;;;51.45;24.48;;;;;;;6.92;90.48;102070.44;5094605;28;20032;-81
2021/12/18 07:28:50;;;;;;;50.25;25.17;;;;;;;6.86;90.29;102073.34;5091952;28;20047;-80
2021/12/18 07:31:16;;;;;;;48.15;23.92;;;;;;;6.84;91.05;102078.72;5077088;28;20036;-80
2021/12/18 07:33:43;;;;;;;49.47;24.85;;;;;;;6.83;91.18;102070.81;5076673;28;20036;-81
2021/12/18 07:36:08;;;;;;;53.05;25.48;;;;;;;6.89;91.22;102084.72;5093591;28;20059;-82
2021/12/18 07:38:34;;;;;;;52.13;23.98;;;;;;;6.91;90.88;102079.34;5092122;28;20466;-82
2021/12/18 07:41:00;;;;;;;50.67;24.55;;;;;;;6.90;91.19;102081.13;5093233;28;20113;-80
2021/12/18 07:43:25;;;;;;;51.55;25.13;;;;;;;6.94;91.16;102071.25;5075052;28;20043;-81
2021/12/18 07:45:50;;;;;;;48.90;23.98;;;;;;;6.91;91.65;102082.88;5074428;28;20063;-80
2021/12/18 07:48:16;;;;;;;47.83;24.15;;;;;;;6.90;91.00;102077.63;5092127;28;20047;-81
2021/12/18 07:50:41;;;;;;;49.42;23.83;;;;;;;6.91;91.11;102076.69;5090889;28;20040;-83
2021/12/18 07:53:06;;;;;;;49.42;24.30;;;;;;;6.85;91.51;102071.63;5075357;28;20100;-83
2021/12/18 07:55:32;;;;;;;51.20;24.13;;;;;;;6.88;91.51;102074.16;5075596;28;20125;-82
2021/12/18 07:57:57;;;;;;;48.72;23.15;;;;;;;6.90;91.63;102072.28;5092339;28;20045;-82
2021/12/18 08:00:23;;;;;;;51.67;24.02;;;;;;;6.91;91.50;102069.56;5092258;28;20040;-81
2021/12/18 08:02:48;;;;;;;47.42;23.63;;;;;;;6.93;91.56;102078.34;5091191;28;20059;-82
2021/12/18 08:05:14;;;;;;;46.70;22.13;;;;;;;6.97;91.22;102071.13;5090513;28;20029;-82
2021/12/18 08:07:40;;;;;;;49.95;23.63;;;;;;;6.93;91.42;102069.50;5073662;28;20096;-82
2021/12/18 08:10:06;;;;;;;47.65;22.77;;;;;;;6.91;91.53;102066.91;5072083;28;20598;-80
2021/12/18 08:12:31;;;;;;;47.92;23.15;;;;;;;6.98;91.70;102058.69;5091277;28;20043;-81
2021/12/18 08:15:07;;;;;;;50.45;23.67;;;;;;;7.01;91.22;102063.88;5090745;28;20032;-82
2021/12/18 08:17:49;;;;;;;44.33;21.83;;;;;;;7.07;91.16;102068.94;5088052;28;20025;-82
2021/12/18 08:20:15;;;;;;;50.90;23.08;;;;;;;7.05;91.46;102065.47;5060663;28;20092;-80
2021/12/18 08:22:40;;;;;;;47.97;22.67;;;;;;;7.01;91.31;102066.53;5091868;28;20056;-80
2021/12/18 08:25:06;;;;;;;48.13;21.95;;;;;;;7.07;91.07;102061.81;5075127;28;20032;-79
2021/12/18 08:27:32;;;;;;;46.30;21.60;;;;;;;7.06;91.54;102067.22;5091294;28;20477;-81
2021/12/18 08:29:57;;;;;;;44.67;21.70;;;;;;;7.10;91.31;102069.72;5091104;28;20048;-82
2021/12/18 08:32:22;;;;;;;44.42;21.25;;;;;;;7.11;91.50;102060.81;5088812;28;20047;-81
2021/12/18 08:34:48;;;;;;;42.97;20.27;;;;;;;7.08;91.81;102060.91;5072829;28;20032;-83
2021/12/18 08:37:14;;;;;;;40.13;19.85;;;;;;;7.10;91.03;102061.72;5089280;28;20614;-82
2021/12/18 08:39:39;;;;;;;41.20;19.58;;;;;;;7.09;91.53;102059.09;5093578;28;20037;-83
2021/12/18 08:42:06;;;;;;;39.08;18.98;;;;;;;7.07;91.53;102058.31;5092350;28;20035;-81
2021/12/18 08:44:32;;;;;;;34.35;17.27;;;;;;;7.02;91.34;102061.16;5091461;28;20143;-82
2021/12/18 08:46:57;;;;;;;37.72;16.92;;;;;;;7.08;91.14;102058.22;5090184;28;20040;-80
2021/12/18 08:49:24;;;;;;;35.42;16.77;;;;;;;7.08;91.53;102066.22;5092713;28;20041;-81
2021/12/18 08:51:50;;;;;;;38.80;17.48;;;;;;;7.10;91.56;102060.88;5074485;28;20043;-81
2021/12/18 08:54:15;;;;;;;38.65;17.58;;;;;;;7.14;91.28;102060.66;5091674;28;20688;-83
2021/12/18 08:56:41;;;;;;;33.97;16.63;;;;;;;7.13;91.43;102050.97;5090791;28;20036;-80
2021/12/18 08:59:06;;;;;;;32.15;15.02;;;;;;;7.17;91.67;102057.88;5074544;28;20047;-81
2021/12/18 09:01:31;;;;;;;31.85;15.02;;;;;;;7.10;91.90;102066.19;5073270;28;20044;-80
2021/12/18 09:03:57;;;;;;;32.28;15.82;;;;;;;7.11;91.34;102054.63;5071558;28;20073;-80
2021/12/18 09:06:22;;;;;;;33.17;15.18;;;;;;;7.16;91.53;102049.97;5091215;28;20040;-80
2021/12/18 09:08:48;;;;;;;27.92;13.63;;;;;;;7.13;91.52;102055.41;5072732;28;20145;-81
2021/12/18 09:11:14;;;;;;;28.30;13.40;;;;;;;7.16;91.31;102050.81;5089809;28;20037;-81
2021/12/18 09:13:39;;;;;;;29.38;14.23;;;;;;;7.17;91.42;102051.69;5089827;28;20035;-80
2021/12/18 09:16:05;;;;;;;31.75;14.10;;;;;;;7.18;91.57;102048.97;5091136;28;20865;-81
2021/12/18 09:18:30;;;;;;;29.02;13.02;;;;;;;7.12;91.37;102054.56;5072619;28;20040;-80
2021/12/18 09:20:56;;;;;;;29.85;12.93;;;;;;;7.14;91.67;102063.34;5072754;28;20056;-82
2021/12/18 09:23:26;;;;;;;27.40;12.95;;;;;;;7.18;91.91;102059.59;5088839;28;20055;-82
2021/12/18 09:25:51;;;;;;;25.48;12.13;;;;;;;7.19;91.84;102053.38;5088168;28;20082;-82
2021/12/18 09:28:17;;;;;;;25.15;12.00;;;;;;;7.17;91.95;102063.19;5073043;28;20111;-81
2021/12/18 09:30:42;;;;;;;24.60;12.13;;;;;;;7.13;91.39;102068.72;5074494;28;20042;-80
2021/12/18 09:33:11;;;;;;;26.10;12.95;;;;;;;7.13;91.79;102069.59;5072844;28;20028;-81
2021/12/18 09:35:37;;;;;;;25.30;11.98;;;;;;;7.13;92.05;102074.91;5073958;28;20067;-81
2021/12/18 09:38:02;;;;;;;24.38;11.95;;;;;;;7.21;92.59;102063.94;5089865;28;20413;-81
2021/12/18 09:40:29;;;;;;;25.35;12.52;;;;;;;7.28;92.11;102067.19;5072470;28;20032;-80
2021/12/18 09:42:54;;;;;;;27.02;13.02;;;;;;;7.26;92.01;102067.28;5073216;28;20538;-81
2021/12/18 09:45:21;;;;;;;26.27;13.30;;;;;;;7.23;92.36;102078.03;5105917;28;20096;-80
2021/12/18 09:47:46;;;;;;;25.02;12.25;;;;;;;7.21;92.23;102072.78;5072964;28;20024;-81
2021/12/18 09:50:13;;;;;;;26.33;12.90;;;;;;;7.21;92.29;102071.91;5088269;28;20040;-81
2021/12/18 09:52:38;;;;;;;27.27;12.32;;;;;;;7.20;92.58;102070.19;5089107;28;20028;-81
2021/12/18 09:55:06;;;;;;;25.67;12.38;;;;;;;7.18;92.69;102064.94;5070297;28;20092;-82
2021/12/18 09:57:40;;;;;;;28.88;12.60;;;;;;;7.23;92.36;102062.06;5087267;28;20067;-82
2021/12/18 10:00:12;;;;;;;26.27;12.65;;;;;;;7.24;92.53;102067.34;5069905;28;20088;-82
2021/12/18 10:02:37;;;;;;;23.45;12.18;;;;;;;7.16;92.13;102065.94;5073433;28;20087;-81
2021/12/18 10:05:03;;;;;;;22.17;11.07;;;;;;;7.20;92.85;102063.06;5071306;28;20024;-81
2021/12/18 10:07:28;;;;;;;22.33;10.98;;;;;;;7.23;92.53;102062.06;5071243;28;20048;-80
2021/12/18 10:09:57;;;;;;;21.88;11.27;;;;;;;7.22;92.79;102063.00;5071679;28;20036;-82
2021/12/18 10:12:25;;;;;;;22.25;11.00;;;;;;;7.22;92.09;102058.56;5088530;28;20044;-82
2021/12/18 10:14:58;;;;;;;26.67;13.00;;;;;;;7.19;92.04;102064.00;5072605;28;20063;-81
2021/12/18 10:17:31;;;;;;;22.33;11.65;;;;;;;7.23;91.88;102051.44;5087502;28;20031;-80
2021/12/18 10:20:22;;;;;;;25.05;12.18;;;;;;;7.22;92.89;102053.22;5088579;28;20055;-82
2021/12/18 10:22:49;;;;;;;21.13;10.65;;;;;;;7.25;92.73;102054.91;5090056;28;20104;-82
2021/12/18 10:25:19;;;;;;;21.60;10.98;;;;;;;7.24;92.18;102046.03;5072726;28;20032;-81
2021/12/18 10:27:54;;;;;;;17.85;10.32;;;;;;;7.24;92.68;102047.84;5089306;28;20703;-82
2021/12/18 10:30:20;;;;;;;18.88;10.02;;;;;;;7.23;92.37;102040.78;5072461;28;20032;-81
2021/12/18 10:33:06;;;;;;;17.27;9.55;;;;;;;7.21;92.40;102046.19;5089735;28;20050;-83
2021/12/18 10:35:50;;;;;;;16.52;9.40;;;;;;;7.23;92.92;102039.00;5073473;28;20383;-81
2021/12/18 10:38:55;;;;;;;18.17;10.02;;;;;;;7.22;92.43;102039.94;5075154;28;20390;-81
2021/12/18 10:41:22;;;;;;;16.55;9.68;;;;;;;7.18;92.43;102038.31;5094682;28;20052;-82
2021/12/18 10:43:56;;;;;;;18.73;10.02;;;;;;;7.12;92.70;102037.72;5074905;28;20393;-81
2021/12/18 10:46:21;;;;;;;17.52;9.85;;;;;;;7.19;92.64;102034.72;5093011;28;20047;-81
2021/12/18 10:49:06;;;;;;;19.90;10.93;;;;;;;7.18;92.25;102025.03;5073503;28;20032;-82
2021/12/18 10:51:33;;;;;;;18.55;10.60;;;;;;;7.24;92.34;102032.75;5091133;28;20071;-82
2021/12/18 10:54:03;;;;;;;18.67;10.27;;;;;;;7.28;92.78;102024.63;5089897;28;20104;-81
2021/12/18 10:56:38;;;;;;;19.80;10.20;;;;;;;7.30;92.59;102031.63;5089418;28;20043;-82
2021/12/18 10:59:06;;;;;;;19.60;10.25;;;;;;;7.36;92.10;102025.16;5076822;28;20042;-82
2021/12/18 11:01:32;;;;;;;18.25;9.82;;;;;;;7.30;92.28;102025.44;5090692;28;20032;-82
2021/12/18 11:03:59;;;;;;;18.02;9.93;;;;;;;7.22;92.20;102023.09;5090413;28;20040;-82
2021/12/18 11:06:31;;;;;;;17.77;10.50;;;;;;;7.24;92.54;102019.44;5075710;28;20048;-81
2021/12/18 11:09:06;;;;;;;19.42;10.27;;;;;;;7.29;92.70;102021.91;5090013;28;20032;-82
2021/12/18 11:14:13;;;;;;;16.50;8.60;;;;;;;7.33;92.75;102006.66;5091526;28;20096;-81
2021/12/18 11:16:43;;;;;;;16.27;9.05;;;;;;;7.24;91.92;102003.47;5074099;28;20051;-83
2021/12/18 11:19:13;;;;;;;20.65;9.95;;;;;;;7.23;92.50;102006.19;5093366;28;20822;-81
2021/12/18 11:21:42;;;;;;;19.13;10.25;;;;;;;7.29;92.85;101999.75;5090793;28;20036;-81
2021/12/18 11:24:08;;;;;;;20.67;10.57;;;;;;;7.32;92.17;102005.78;5089321;28;20032;-82
2021/12/18 11:26:42;;;;;;;21.33;10.73;;;;;;;7.33;92.51;101999.53;5092000;28;20032;-81
2021/12/18 11:29:34;;;;;;;18.73;9.98;;;;;;;7.32;92.46;101996.94;5091208;28;20035;-81
2021/12/18 11:32:00;;;;;;;19.00;9.80;;;;;;;7.34;92.31;102001.28;5073234;28;20033;-80
2021/12/18 11:34:26;;;;;;;19.83;10.50;;;;;;;7.28;92.95;101995.34;5091884;28;20048;-81
2021/12/18 11:36:52;;;;;;;17.55;9.25;;;;;;;7.34;92.74;102000.41;5072276;28;20147;-82
2021/12/18 11:39:19;;;;;;;17.63;9.00;;;;;;;7.36;91.96;101993.22;5074088;28;20051;-81
2021/12/18 11:41:50;;;;;;;16.02;8.98;;;;;;;7.35;92.37;101997.69;5088061;28;20037;-82
2021/12/18 11:44:25;;;;;;;15.55;8.70;;;;;;;7.31;91.83;101990.75;5071880;28;20029;-80
2021/12/18 11:46:51;;;;;;;14.93;7.95;;;;;;;7.38;92.30;101986.91;5092357;28;20048;-80
2021/12/18 11:49:19;;;;;;;17.27;9.32;;;;;;;7.38;91.80;101978.06;5068425;28;20101;-80
2021/12/18 11:52:04;;;;;;;15.18;8.40;;;;;;;7.33;91.84;101978.25;5072983;28;20034;-80
2021/12/18 11:54:51;;;;;;;18.55;9.57;;;;;;;7.25;91.78;101977.72;5073374;28;20062;-81
2021/12/18 11:57:37;;;;;;;18.60;10.38;;;;;;;7.33;92.14;101980.91;5087904;28;20025;-82
2021/12/18 12:00:21;;;;;;;18.00;9.57;;;;;;;7.29;92.09;101981.13;5068570;28;20048;-81
2021/12/18 12:02:54;;;;;;;17.77;9.52;;;;;;;7.31;92.15;101980.13;5090242;28;20048;-82
2021/12/18 12:05:47;;;;;;;16.70;9.65;;;;;;;7.30;92.01;101982.84;5058408;28;20028;-82